Paya Lebar Air Base
WSAP : now visible

Aeroporto :











RITROVATECI SU...

 
LOGIN :

Iscrizione | Disclaimer

   EN    FR    IT 

 









Sommario :    VFR   VFR Marginale   IFR   IFR Intensivo   IFR Molto Intensivo
Visibilità : 
Base nubi : 
>= 8 km
>= 3000ft
5 / 8 km
1000 / 3000 ft
1500m / 5 km
500 / 1000 ft
800 / 1500m
200 / 500 ft
< 800m
< 200 ft
Simboli :   Temporali  Nebbia  Neve Forte  Precipitazioni Forti  Vento > 20 kt






- Altitudine del aeroporto : 65 ft
- Codice IATA : QPG


WSAP - Paya Lebar Air Base

ULTIMO METAR :
  • 280600Z 08011KT 9999 FEW020 BKN300 33/24 Q1009

METARs OBSOLETI :
  • 280500Z 04013KT 9999 FEW020 BKN300 32/23 Q1010
  • 280400Z 05012KT 9999 FEW018 BKN300 31/24 Q1010

TAF TAF WSAP
Valido dal 28 a 06 ore il 29 a 12 ore UTC


280500Z 2806/2912 03010KT 9999 FEW015 SCT020



MetMap, La meteo Aeronautica in un colpo d'occhio ! - Copyright ORBIFLY Dicembre 2007 - Disclaimer

ORBIFLY MET'MAP TEAM :

Programmazione e sviluppo : Alexandra Zaïnal
Concezione : Baudouin d'Aumeries
Aiuto per la programmazione : Marc-Olivier Méhu
Supporto tecnico e logistico : Manuel Goepfert
Aiuto per la traduzione : Arnaldo La Scala

Contatto : metmap@orbifly.com




FONTI E CREDITI :

   NOAA       Earth
Advisory